sensor_id;sensor_type;location;lat;lon;timestamp;P1;durP1;ratioP1;P2;durP2;ratioP2
12122;SDS011;6125;59.628;17.852;2022-11-21T00:01:27;7.57;;;3.80;;
12122;SDS011;6125;59.628;17.852;2022-11-21T00:03:54;4.17;;;3.27;;
12122;SDS011;6125;59.628;17.852;2022-11-21T00:06:21;6.47;;;4.07;;
12122;SDS011;6125;59.628;17.852;2022-11-21T00:08:53;5.67;;;4.00;;
12122;SDS011;6125;59.628;17.852;2022-11-21T00:11:22;4.53;;;3.30;;
12122;SDS011;6125;59.628;17.852;2022-11-21T00:13:51;5.33;;;4.00;;
12122;SDS011;6125;59.628;17.852;2022-11-21T00:16:18;5.57;;;3.70;;
12122;SDS011;6125;59.628;17.852;2022-11-21T00:18:45;5.03;;;3.67;;
12122;SDS011;6125;59.628;17.852;2022-11-21T00:21:12;5.07;;;3.70;;
12122;SDS011;6125;59.628;17.852;2022-11-21T00:23:41;5.33;;;3.40;;
12122;SDS011;6125;59.628;17.852;2022-11-21T00:26:12;5.80;;;3.53;;
12122;SDS011;6125;59.628;17.852;2022-11-21T00:28:44;6.27;;;3.60;;
12122;SDS011;6125;59.628;17.852;2022-11-21T00:31:17;5.87;;;3.50;;
12122;SDS011;6125;59.628;17.852;2022-11-21T00:33:47;4.73;;;3.57;;
12122;SDS011;6125;59.628;17.852;2022-11-21T00:36:14;6.90;;;3.30;;
12122;SDS011;6125;59.628;17.852;2022-11-21T00:38:41;5.80;;;2.50;;
12122;SDS011;6125;59.628;17.852;2022-11-21T00:41:08;3.47;;;2.60;;
12122;SDS011;6125;59.628;17.852;2022-11-21T00:43:35;3.57;;;2.53;;
12122;SDS011;6125;59.628;17.852;2022-11-21T00:46:04;4.13;;;2.87;;
12122;SDS011;6125;59.628;17.852;2022-11-21T00:48:31;3.73;;;2.60;;
12122;SDS011;6125;59.628;17.852;2022-11-21T00:51:03;4.10;;;2.77;;
12122;SDS011;6125;59.628;17.852;2022-11-21T00:53:30;3.73;;;2.77;;
12122;SDS011;6125;59.628;17.852;2022-11-21T00:55:57;5.47;;;3.30;;
12122;SDS011;6125;59.628;17.852;2022-11-21T00:58:24;5.87;;;3.27;;
12122;SDS011;6125;59.628;17.852;2022-11-21T01:00:51;5.30;;;3.30;;
12122;SDS011;6125;59.628;17.852;2022-11-21T01:03:24;6.07;;;3.20;;
12122;SDS011;6125;59.628;17.852;2022-11-21T01:05:56;4.13;;;2.93;;
12122;SDS011;6125;59.628;17.852;2022-11-21T01:08:26;5.10;;;3.30;;
12122;SDS011;6125;59.628;17.852;2022-11-21T01:10:53;4.77;;;2.87;;
12122;SDS011;6125;59.628;17.852;2022-11-21T01:13:20;4.77;;;3.50;;
12122;SDS011;6125;59.628;17.852;2022-11-21T01:15:50;3.50;;;2.87;;
12122;SDS011;6125;59.628;17.852;2022-11-21T01:18:21;5.93;;;3.90;;
12122;SDS011;6125;59.628;17.852;2022-11-21T01:20:52;7.53;;;3.70;;
12122;SDS011;6125;59.628;17.852;2022-11-21T01:23:19;6.27;;;3.50;;
12122;SDS011;6125;59.628;17.852;2022-11-21T01:25:46;4.17;;;3.10;;
12122;SDS011;6125;59.628;17.852;2022-11-21T01:28:13;6.00;;;3.73;;
12122;SDS011;6125;59.628;17.852;2022-11-21T01:30:42;7.77;;;4.77;;
12122;SDS011;6125;59.628;17.852;2022-11-21T01:33:12;8.47;;;4.83;;
12122;SDS011;6125;59.628;17.852;2022-11-21T01:35:45;7.53;;;4.70;;
12122;SDS011;6125;59.628;17.852;2022-11-21T01:38:14;8.23;;;4.87;;
12122;SDS011;6125;59.628;17.852;2022-11-21T01:40:53;8.37;;;5.73;;
12122;SDS011;6125;59.628;17.852;2022-11-21T01:43:20;9.67;;;5.37;;
12122;SDS011;6125;59.628;17.852;2022-11-21T01:45:54;9.10;;;5.73;;
12122;SDS011;6125;59.628;17.852;2022-11-21T01:48:26;7.23;;;4.80;;
12122;SDS011;6125;59.628;17.852;2022-11-21T01:51:00;7.87;;;4.53;;
12122;SDS011;6125;59.628;17.852;2022-11-21T01:53:34;6.97;;;4.03;;
12122;SDS011;6125;59.628;17.852;2022-11-21T01:56:05;6.30;;;4.20;;
12122;SDS011;6125;59.628;17.852;2022-11-21T01:58:34;5.20;;;3.47;;
12122;SDS011;6125;59.628;17.852;2022-11-21T02:01:03;5.37;;;3.67;;
12122;SDS011;6125;59.628;17.852;2022-11-21T02:03:31;5.20;;;3.80;;
12122;SDS011;6125;59.628;17.852;2022-11-21T02:06:04;5.70;;;3.77;;
12122;SDS011;6125;59.628;17.852;2022-11-21T02:08:40;7.13;;;4.47;;
12122;SDS011;6125;59.628;17.852;2022-11-21T02:11:13;6.90;;;4.33;;
12122;SDS011;6125;59.628;17.852;2022-11-21T02:13:46;6.70;;;4.80;;
12122;SDS011;6125;59.628;17.852;2022-11-21T02:16:13;7.90;;;4.93;;
12122;SDS011;6125;59.628;17.852;2022-11-21T02:18:40;7.77;;;5.13;;
12122;SDS011;6125;59.628;17.852;2022-11-21T02:21:12;8.60;;;4.77;;
12122;SDS011;6125;59.628;17.852;2022-11-21T02:23:49;8.73;;;5.00;;
12122;SDS011;6125;59.628;17.852;2022-11-21T02:26:26;8.27;;;5.23;;
12122;SDS011;6125;59.628;17.852;2022-11-21T02:28:54;7.70;;;4.80;;
12122;SDS011;6125;59.628;17.852;2022-11-21T02:31:21;9.00;;;5.40;;
12122;SDS011;6125;59.628;17.852;2022-11-21T02:33:53;7.83;;;5.17;;
12122;SDS011;6125;59.628;17.852;2022-11-21T02:36:29;6.87;;;4.50;;
12122;SDS011;6125;59.628;17.852;2022-11-21T02:39:06;8.97;;;5.20;;
12122;SDS011;6125;59.628;17.852;2022-11-21T02:41:39;8.10;;;4.63;;
12122;SDS011;6125;59.628;17.852;2022-11-21T02:44:14;8.87;;;5.03;;
12122;SDS011;6125;59.628;17.852;2022-11-21T02:46:46;8.13;;;5.37;;
12122;SDS011;6125;59.628;17.852;2022-11-21T02:49:15;9.00;;;5.20;;
12122;SDS011;6125;59.628;17.852;2022-11-21T02:51:48;10.40;;;5.83;;
12122;SDS011;6125;59.628;17.852;2022-11-21T02:54:15;7.57;;;5.10;;
12122;SDS011;6125;59.628;17.852;2022-11-21T02:56:44;8.30;;;5.63;;
12122;SDS011;6125;59.628;17.852;2022-11-21T02:59:16;8.20;;;5.60;;
12122;SDS011;6125;59.628;17.852;2022-11-21T03:01:43;8.10;;;5.33;;
12122;SDS011;6125;59.628;17.852;2022-11-21T03:04:12;9.97;;;6.03;;
12122;SDS011;6125;59.628;17.852;2022-11-21T03:06:39;8.60;;;5.30;;
12122;SDS011;6125;59.628;17.852;2022-11-21T03:09:06;9.73;;;5.63;;
12122;SDS011;6125;59.628;17.852;2022-11-21T03:11:36;11.33;;;5.83;;
12122;SDS011;6125;59.628;17.852;2022-11-21T03:14:06;10.83;;;5.87;;
12122;SDS011;6125;59.628;17.852;2022-11-21T03:16:33;10.97;;;6.13;;
12122;SDS011;6125;59.628;17.852;2022-11-21T03:19:00;11.77;;;5.93;;
12122;SDS011;6125;59.628;17.852;2022-11-21T03:21:27;8.17;;;5.80;;
12122;SDS011;6125;59.628;17.852;2022-11-21T03:23:54;11.13;;;6.83;;
12122;SDS011;6125;59.628;17.852;2022-11-21T03:26:21;10.07;;;6.50;;
12122;SDS011;6125;59.628;17.852;2022-11-21T03:28:48;9.90;;;6.13;;
12122;SDS011;6125;59.628;17.852;2022-11-21T03:31:18;12.57;;;7.30;;
12122;SDS011;6125;59.628;17.852;2022-11-21T03:33:45;13.67;;;6.87;;
12122;SDS011;6125;59.628;17.852;2022-11-21T03:36:22;11.50;;;6.73;;
12122;SDS011;6125;59.628;17.852;2022-11-21T03:38:48;13.17;;;7.37;;
12122;SDS011;6125;59.628;17.852;2022-11-21T03:41:16;11.27;;;7.13;;
12122;SDS011;6125;59.628;17.852;2022-11-21T03:43:54;10.37;;;6.63;;
12122;SDS011;6125;59.628;17.852;2022-11-21T03:46:25;11.70;;;6.50;;
12122;SDS011;6125;59.628;17.852;2022-11-21T03:48:56;10.03;;;6.80;;
12122;SDS011;6125;59.628;17.852;2022-11-21T03:51:23;13.20;;;7.33;;
12122;SDS011;6125;59.628;17.852;2022-11-21T03:53:51;10.43;;;6.47;;
12122;SDS011;6125;59.628;17.852;2022-11-21T03:56:20;12.63;;;6.87;;
12122;SDS011;6125;59.628;17.852;2022-11-21T03:58:47;10.63;;;6.77;;
12122;SDS011;6125;59.628;17.852;2022-11-21T04:01:16;12.37;;;6.20;;
12122;SDS011;6125;59.628;17.852;2022-11-21T04:03:44;10.03;;;6.20;;
12122;SDS011;6125;59.628;17.852;2022-11-21T04:06:12;9.87;;;6.13;;
12122;SDS011;6125;59.628;17.852;2022-11-21T04:08:40;9.40;;;6.13;;
12122;SDS011;6125;59.628;17.852;2022-11-21T04:11:10;8.07;;;6.13;;
12122;SDS011;6125;59.628;17.852;2022-11-21T04:13:37;10.50;;;6.73;;
12122;SDS011;6125;59.628;17.852;2022-11-21T04:16:04;11.23;;;6.87;;
12122;SDS011;6125;59.628;17.852;2022-11-21T04:18:36;8.40;;;5.43;;
12122;SDS011;6125;59.628;17.852;2022-11-21T04:21:05;11.47;;;6.33;;
12122;SDS011;6125;59.628;17.852;2022-11-21T04:23:33;8.60;;;6.17;;
12122;SDS011;6125;59.628;17.852;2022-11-21T04:26:04;10.20;;;6.17;;
12122;SDS011;6125;59.628;17.852;2022-11-21T04:28:34;13.37;;;7.10;;
12122;SDS011;6125;59.628;17.852;2022-11-21T04:31:04;9.20;;;6.37;;
12122;SDS011;6125;59.628;17.852;2022-11-21T04:33:32;12.07;;;6.13;;
12122;SDS011;6125;59.628;17.852;2022-11-21T04:35:59;13.93;;;7.23;;
12122;SDS011;6125;59.628;17.852;2022-11-21T04:38:28;10.13;;;6.70;;
12122;SDS011;6125;59.628;17.852;2022-11-21T04:40:57;9.33;;;6.10;;
12122;SDS011;6125;59.628;17.852;2022-11-21T04:43:24;14.27;;;6.73;;
12122;SDS011;6125;59.628;17.852;2022-11-21T04:45:51;10.33;;;5.93;;
12122;SDS011;6125;59.628;17.852;2022-11-21T04:48:18;9.23;;;6.23;;
12122;SDS011;6125;59.628;17.852;2022-11-21T04:50:45;13.30;;;7.47;;
12122;SDS011;6125;59.628;17.852;2022-11-21T04:53:15;9.93;;;6.80;;
12122;SDS011;6125;59.628;17.852;2022-11-21T04:55:43;8.50;;;5.83;;
12122;SDS011;6125;59.628;17.852;2022-11-21T04:58:14;13.93;;;5.60;;
12122;SDS011;6125;59.628;17.852;2022-11-21T05:00:41;10.73;;;6.20;;
12122;SDS011;6125;59.628;17.852;2022-11-21T05:03:10;14.37;;;6.60;;
12122;SDS011;6125;59.628;17.852;2022-11-21T05:05:37;9.07;;;5.90;;
12122;SDS011;6125;59.628;17.852;2022-11-21T05:08:04;9.07;;;5.77;;
12122;SDS011;6125;59.628;17.852;2022-11-21T05:10:39;11.07;;;6.47;;
12122;SDS011;6125;59.628;17.852;2022-11-21T05:13:26;10.33;;;6.20;;
12122;SDS011;6125;59.628;17.852;2022-11-21T05:15:55;9.33;;;6.13;;
12122;SDS011;6125;59.628;17.852;2022-11-21T05:18:22;11.13;;;6.30;;
12122;SDS011;6125;59.628;17.852;2022-11-21T05:20:52;9.53;;;6.23;;
12122;SDS011;6125;59.628;17.852;2022-11-21T05:23:19;14.30;;;7.00;;
12122;SDS011;6125;59.628;17.852;2022-11-21T05:25:46;11.33;;;6.33;;
12122;SDS011;6125;59.628;17.852;2022-11-21T05:28:13;11.63;;;6.10;;
12122;SDS011;6125;59.628;17.852;2022-11-21T05:30:42;8.83;;;5.77;;
12122;SDS011;6125;59.628;17.852;2022-11-21T05:33:12;12.63;;;6.13;;
12122;SDS011;6125;59.628;17.852;2022-11-21T05:35:38;9.87;;;6.20;;
12122;SDS011;6125;59.628;17.852;2022-11-21T05:38:05;9.97;;;6.10;;
12122;SDS011;6125;59.628;17.852;2022-11-21T05:40:32;10.93;;;6.50;;
12122;SDS011;6125;59.628;17.852;2022-11-21T05:43:04;10.27;;;5.80;;
12122;SDS011;6125;59.628;17.852;2022-11-21T05:45:50;11.80;;;6.20;;
12122;SDS011;6125;59.628;17.852;2022-11-21T05:48:22;10.27;;;6.07;;
12122;SDS011;6125;59.628;17.852;2022-11-21T05:50:49;13.33;;;6.23;;
12122;SDS011;6125;59.628;17.852;2022-11-21T05:53:18;11.07;;;5.90;;
12122;SDS011;6125;59.628;17.852;2022-11-21T05:55:45;10.77;;;6.40;;
12122;SDS011;6125;59.628;17.852;2022-11-21T05:58:12;12.10;;;6.80;;
12122;SDS011;6125;59.628;17.852;2022-11-21T06:00:39;11.93;;;6.50;;
12122;SDS011;6125;59.628;17.852;2022-11-21T06:03:11;12.20;;;6.63;;
12122;SDS011;6125;59.628;17.852;2022-11-21T06:05:52;9.40;;;6.47;;
12122;SDS011;6125;59.628;17.852;2022-11-21T06:08:23;8.87;;;6.03;;
12122;SDS011;6125;59.628;17.852;2022-11-21T06:10:50;9.73;;;5.83;;
12122;SDS011;6125;59.628;17.852;2022-11-21T06:13:19;9.53;;;6.50;;
12122;SDS011;6125;59.628;17.852;2022-11-21T06:15:50;12.50;;;6.90;;
12122;SDS011;6125;59.628;17.852;2022-11-21T06:18:23;14.80;;;6.40;;
12122;SDS011;6125;59.628;17.852;2022-11-21T06:20:51;10.63;;;6.63;;
12122;SDS011;6125;59.628;17.852;2022-11-21T06:23:19;13.27;;;6.20;;
12122;SDS011;6125;59.628;17.852;2022-11-21T06:25:54;9.93;;;6.47;;
12122;SDS011;6125;59.628;17.852;2022-11-21T06:28:22;12.70;;;7.07;;
12122;SDS011;6125;59.628;17.852;2022-11-21T06:30:49;13.60;;;6.43;;
12122;SDS011;6125;59.628;17.852;2022-11-21T06:33:16;13.47;;;6.30;;
12122;SDS011;6125;59.628;17.852;2022-11-21T06:35:48;11.57;;;7.10;;
12122;SDS011;6125;59.628;17.852;2022-11-21T06:38:19;11.70;;;6.63;;
12122;SDS011;6125;59.628;17.852;2022-11-21T06:40:48;10.60;;;6.43;;
12122;SDS011;6125;59.628;17.852;2022-11-21T06:43:18;15.90;;;6.80;;
12122;SDS011;6125;59.628;17.852;2022-11-21T06:45:47;14.03;;;7.03;;
12122;SDS011;6125;59.628;17.852;2022-11-21T06:48:16;13.07;;;7.57;;
12122;SDS011;6125;59.628;17.852;2022-11-21T06:50:44;10.83;;;6.47;;
12122;SDS011;6125;59.628;17.852;2022-11-21T06:53:12;10.80;;;6.77;;
12122;SDS011;6125;59.628;17.852;2022-11-21T06:55:39;10.57;;;6.70;;
12122;SDS011;6125;59.628;17.852;2022-11-21T06:58:06;10.60;;;6.93;;
12122;SDS011;6125;59.628;17.852;2022-11-21T07:00:33;10.10;;;6.53;;
12122;SDS011;6125;59.628;17.852;2022-11-21T07:03:02;11.00;;;6.77;;
12122;SDS011;6125;59.628;17.852;2022-11-21T07:05:29;11.50;;;6.70;;
12122;SDS011;6125;59.628;17.852;2022-11-21T07:07:56;12.40;;;7.37;;
12122;SDS011;6125;59.628;17.852;2022-11-21T07:10:28;13.20;;;7.23;;
12122;SDS011;6125;59.628;17.852;2022-11-21T07:12:55;11.33;;;7.43;;
12122;SDS011;6125;59.628;17.852;2022-11-21T07:15:40;14.50;;;7.00;;
12122;SDS011;6125;59.628;17.852;2022-11-21T07:18:07;9.77;;;6.50;;
12122;SDS011;6125;59.628;17.852;2022-11-21T07:20:42;11.40;;;6.57;;
12122;SDS011;6125;59.628;17.852;2022-11-21T07:23:09;11.23;;;6.57;;
12122;SDS011;6125;59.628;17.852;2022-11-21T07:25:37;11.40;;;6.20;;
12122;SDS011;6125;59.628;17.852;2022-11-21T07:28:05;8.37;;;5.70;;
12122;SDS011;6125;59.628;17.852;2022-11-21T07:30:32;12.60;;;5.67;;
12122;SDS011;6125;59.628;17.852;2022-11-21T07:33:00;7.10;;;5.10;;
12122;SDS011;6125;59.628;17.852;2022-11-21T07:35:28;8.83;;;5.03;;
12122;SDS011;6125;59.628;17.852;2022-11-21T07:37:57;5.17;;;3.80;;
12122;SDS011;6125;59.628;17.852;2022-11-21T07:40:25;6.07;;;3.73;;
12122;SDS011;6125;59.628;17.852;2022-11-21T07:42:54;4.80;;;3.20;;
12122;SDS011;6125;59.628;17.852;2022-11-21T07:45:40;5.90;;;3.40;;
12122;SDS011;6125;59.628;17.852;2022-11-21T07:48:08;3.23;;;2.50;;
12122;SDS011;6125;59.628;17.852;2022-11-21T07:50:37;3.67;;;2.67;;
12122;SDS011;6125;59.628;17.852;2022-11-21T07:53:05;4.50;;;2.53;;
12122;SDS011;6125;59.628;17.852;2022-11-21T07:55:34;2.63;;;2.37;;
12122;SDS011;6125;59.628;17.852;2022-11-21T07:58:06;3.10;;;2.27;;
12122;SDS011;6125;59.628;17.852;2022-11-21T08:00:35;2.73;;;2.17;;
12122;SDS011;6125;59.628;17.852;2022-11-21T08:03:03;2.33;;;1.70;;
12122;SDS011;6125;59.628;17.852;2022-11-21T08:05:31;1.97;;;1.73;;
12122;SDS011;6125;59.628;17.852;2022-11-21T08:08:04;1.63;;;1.53;;
12122;SDS011;6125;59.628;17.852;2022-11-21T08:10:32;2.30;;;1.63;;
12122;SDS011;6125;59.628;17.852;2022-11-21T08:12:59;2.57;;;1.60;;
12122;SDS011;6125;59.628;17.852;2022-11-21T08:15:27;2.20;;;1.60;;
12122;SDS011;6125;59.628;17.852;2022-11-21T08:17:56;1.87;;;1.47;;
12122;SDS011;6125;59.628;17.852;2022-11-21T08:20:23;2.37;;;2.03;;
12122;SDS011;6125;59.628;17.852;2022-11-21T08:22:50;3.97;;;2.70;;
12122;SDS011;6125;59.628;17.852;2022-11-21T08:25:17;4.37;;;3.07;;
12122;SDS011;6125;59.628;17.852;2022-11-21T08:27:44;3.67;;;3.00;;
12122;SDS011;6125;59.628;17.852;2022-11-21T08:30:11;5.70;;;3.43;;
12122;SDS011;6125;59.628;17.852;2022-11-21T08:32:41;3.90;;;2.93;;
12122;SDS011;6125;59.628;17.852;2022-11-21T08:35:08;4.87;;;2.97;;
12122;SDS011;6125;59.628;17.852;2022-11-21T08:37:37;5.23;;;3.73;;
12122;SDS011;6125;59.628;17.852;2022-11-21T08:40:05;6.07;;;4.13;;
12122;SDS011;6125;59.628;17.852;2022-11-21T08:42:35;6.77;;;4.00;;
12122;SDS011;6125;59.628;17.852;2022-11-21T08:45:05;8.87;;;5.40;;
12122;SDS011;6125;59.628;17.852;2022-11-21T08:47:37;7.57;;;5.33;;
12122;SDS011;6125;59.628;17.852;2022-11-21T08:50:10;11.63;;;5.87;;
12122;SDS011;6125;59.628;17.852;2022-11-21T08:52:41;9.37;;;5.43;;
12122;SDS011;6125;59.628;17.852;2022-11-21T08:55:08;10.90;;;6.30;;
12122;SDS011;6125;59.628;17.852;2022-11-21T08:57:38;8.53;;;5.60;;
12122;SDS011;6125;59.628;17.852;2022-11-21T09:00:06;8.30;;;5.63;;
12122;SDS011;6125;59.628;17.852;2022-11-21T09:02:36;9.47;;;6.73;;
12122;SDS011;6125;59.628;17.852;2022-11-21T09:05:04;9.90;;;5.40;;
12122;SDS011;6125;59.628;17.852;2022-11-21T09:07:32;9.40;;;6.40;;
12122;SDS011;6125;59.628;17.852;2022-11-21T09:09:59;10.13;;;6.73;;
12122;SDS011;6125;59.628;17.852;2022-11-21T09:12:26;11.27;;;6.20;;
12122;SDS011;6125;59.628;17.852;2022-11-21T09:14:53;11.27;;;5.87;;
12122;SDS011;6125;59.628;17.852;2022-11-21T09:17:49;10.40;;;5.80;;
12122;SDS011;6125;59.628;17.852;2022-11-21T09:20:30;9.80;;;5.73;;
12122;SDS011;6125;59.628;17.852;2022-11-21T09:23:03;7.80;;;5.70;;
12122;SDS011;6125;59.628;17.852;2022-11-21T09:25:30;8.43;;;5.53;;
12122;SDS011;6125;59.628;17.852;2022-11-21T09:27:58;8.40;;;5.13;;
12122;SDS011;6125;59.628;17.852;2022-11-21T09:30:26;8.17;;;5.50;;
12122;SDS011;6125;59.628;17.852;2022-11-21T09:32:53;6.97;;;5.23;;
12122;SDS011;6125;59.628;17.852;2022-11-21T09:35:24;9.13;;;5.67;;
12122;SDS011;6125;59.628;17.852;2022-11-21T09:37:51;7.30;;;5.23;;
12122;SDS011;6125;59.628;17.852;2022-11-21T09:40:21;7.33;;;5.00;;
12122;SDS011;6125;59.628;17.852;2022-11-21T09:42:55;8.13;;;5.17;;
12122;SDS011;6125;59.628;17.852;2022-11-21T09:45:43;6.90;;;5.07;;
12122;SDS011;6125;59.628;17.852;2022-11-21T09:48:14;8.97;;;5.40;;
12122;SDS011;6125;59.628;17.852;2022-11-21T09:50:50;8.07;;;5.50;;
12122;SDS011;6125;59.628;17.852;2022-11-21T09:53:26;7.37;;;5.23;;
12122;SDS011;6125;59.628;17.852;2022-11-21T09:55:59;7.67;;;4.90;;
12122;SDS011;6125;59.628;17.852;2022-11-21T09:58:41;8.13;;;5.40;;
12122;SDS011;6125;59.628;17.852;2022-11-21T10:01:10;12.93;;;5.87;;
12122;SDS011;6125;59.628;17.852;2022-11-21T10:03:40;7.33;;;5.53;;
12122;SDS011;6125;59.628;17.852;2022-11-21T10:06:12;7.83;;;5.13;;
12122;SDS011;6125;59.628;17.852;2022-11-21T10:08:47;8.70;;;5.50;;
12122;SDS011;6125;59.628;17.852;2022-11-21T10:11:23;8.67;;;5.83;;
12122;SDS011;6125;59.628;17.852;2022-11-21T10:14:27;9.13;;;5.50;;
12122;SDS011;6125;59.628;17.852;2022-11-21T10:17:08;8.77;;;5.03;;
12122;SDS011;6125;59.628;17.852;2022-11-21T10:19:47;8.73;;;5.87;;
12122;SDS011;6125;59.628;17.852;2022-11-21T10:22:30;6.77;;;4.87;;
12122;SDS011;6125;59.628;17.852;2022-11-21T10:25:13;9.50;;;5.67;;
12122;SDS011;6125;59.628;17.852;2022-11-21T10:27:52;7.00;;;5.20;;
12122;SDS011;6125;59.628;17.852;2022-11-21T10:30:22;9.43;;;5.50;;
12122;SDS011;6125;59.628;17.852;2022-11-21T10:32:50;6.47;;;4.37;;
12122;SDS011;6125;59.628;17.852;2022-11-21T10:35:21;7.50;;;5.30;;
12122;SDS011;6125;59.628;17.852;2022-11-21T10:37:52;7.30;;;5.20;;
12122;SDS011;6125;59.628;17.852;2022-11-21T10:40:27;9.17;;;5.60;;
12122;SDS011;6125;59.628;17.852;2022-11-21T10:43:01;9.23;;;5.50;;
12122;SDS011;6125;59.628;17.852;2022-11-21T10:45:46;6.03;;;4.80;;
12122;SDS011;6125;59.628;17.852;2022-11-21T10:48:13;7.80;;;5.50;;
12122;SDS011;6125;59.628;17.852;2022-11-21T10:50:47;8.00;;;5.00;;
12122;SDS011;6125;59.628;17.852;2022-11-21T10:53:24;8.07;;;4.90;;
12122;SDS011;6125;59.628;17.852;2022-11-21T10:56:10;9.80;;;5.57;;
12122;SDS011;6125;59.628;17.852;2022-11-21T10:58:41;7.97;;;4.93;;
12122;SDS011;6125;59.628;17.852;2022-11-21T11:04:14;8.70;;;4.80;;
12122;SDS011;6125;59.628;17.852;2022-11-21T11:06:43;7.53;;;5.20;;
12122;SDS011;6125;59.628;17.852;2022-11-21T11:09:21;8.37;;;5.30;;
12122;SDS011;6125;59.628;17.852;2022-11-21T11:11:55;7.07;;;4.40;;
12122;SDS011;6125;59.628;17.852;2022-11-21T11:14:53;8.90;;;5.40;;
12122;SDS011;6125;59.628;17.852;2022-11-21T11:17:25;7.77;;;5.00;;
12122;SDS011;6125;59.628;17.852;2022-11-21T11:20:00;7.07;;;4.87;;
12122;SDS011;6125;59.628;17.852;2022-11-21T11:22:32;8.17;;;5.80;;
12122;SDS011;6125;59.628;17.852;2022-11-21T11:25:01;7.40;;;5.47;;
12122;SDS011;6125;59.628;17.852;2022-11-21T11:27:32;7.13;;;5.30;;
12122;SDS011;6125;59.628;17.852;2022-11-21T11:30:06;6.30;;;4.63;;
12122;SDS011;6125;59.628;17.852;2022-11-21T11:32:37;6.83;;;4.90;;
12122;SDS011;6125;59.628;17.852;2022-11-21T11:35:07;7.97;;;5.30;;
12122;SDS011;6125;59.628;17.852;2022-11-21T11:37:46;9.50;;;5.07;;
12122;SDS011;6125;59.628;17.852;2022-11-21T11:40:24;8.77;;;4.87;;
12122;SDS011;6125;59.628;17.852;2022-11-21T11:43:04;10.03;;;5.53;;
12122;SDS011;6125;59.628;17.852;2022-11-21T11:46:10;6.63;;;5.03;;
12122;SDS011;6125;59.628;17.852;2022-11-21T11:48:58;7.30;;;5.17;;
12122;SDS011;6125;59.628;17.852;2022-11-21T11:51:30;9.53;;;4.80;;
12122;SDS011;6125;59.628;17.852;2022-11-21T11:54:04;7.20;;;4.80;;
12122;SDS011;6125;59.628;17.852;2022-11-21T11:56:40;7.90;;;4.93;;
12122;SDS011;6125;59.628;17.852;2022-11-21T11:59:10;9.37;;;5.13;;
12122;SDS011;6125;59.628;17.852;2022-11-21T12:01:44;8.80;;;5.17;;
12122;SDS011;6125;59.628;17.852;2022-11-21T12:04:16;12.20;;;5.80;;
12122;SDS011;6125;59.628;17.852;2022-11-21T12:06:45;7.67;;;5.13;;
12122;SDS011;6125;59.628;17.852;2022-11-21T12:09:31;11.07;;;5.33;;
12122;SDS011;6125;59.628;17.852;2022-11-21T12:12:07;7.47;;;5.33;;
12122;SDS011;6125;59.628;17.852;2022-11-21T12:17:50;8.03;;;5.10;;
12122;SDS011;6125;59.628;17.852;2022-11-21T12:20:22;8.87;;;5.53;;
12122;SDS011;6125;59.628;17.852;2022-11-21T12:22:53;9.10;;;4.40;;
12122;SDS011;6125;59.628;17.852;2022-11-21T12:25:23;9.37;;;5.20;;
12122;SDS011;6125;59.628;17.852;2022-11-21T12:27:56;8.40;;;5.73;;
12122;SDS011;6125;59.628;17.852;2022-11-21T12:30:30;7.43;;;4.40;;
12122;SDS011;6125;59.628;17.852;2022-11-21T12:33:20;7.80;;;4.80;;
12122;SDS011;6125;59.628;17.852;2022-11-21T12:36:02;6.93;;;4.40;;
12122;SDS011;6125;59.628;17.852;2022-11-21T12:38:43;5.30;;;4.30;;
12122;SDS011;6125;59.628;17.852;2022-11-21T12:41:31;6.20;;;4.30;;
12122;SDS011;6125;59.628;17.852;2022-11-21T12:44:37;6.90;;;4.50;;
12122;SDS011;6125;59.628;17.852;2022-11-21T12:47:21;7.57;;;4.67;;
12122;SDS011;6125;59.628;17.852;2022-11-21T12:50:36;6.10;;;3.80;;
12122;SDS011;6125;59.628;17.852;2022-11-21T12:53:29;6.87;;;4.70;;
12122;SDS011;6125;59.628;17.852;2022-11-21T12:56:24;8.70;;;4.33;;
12122;SDS011;6125;59.628;17.852;2022-11-21T12:59:02;4.83;;;3.77;;
12122;SDS011;6125;59.628;17.852;2022-11-21T13:01:34;7.30;;;4.30;;
12122;SDS011;6125;59.628;17.852;2022-11-21T13:04:10;5.67;;;3.87;;
12122;SDS011;6125;59.628;17.852;2022-11-21T13:06:45;5.53;;;3.50;;
12122;SDS011;6125;59.628;17.852;2022-11-21T13:09:14;5.53;;;3.90;;
12122;SDS011;6125;59.628;17.852;2022-11-21T13:11:48;5.17;;;3.73;;
12122;SDS011;6125;59.628;17.852;2022-11-21T13:14:33;5.60;;;3.70;;
12122;SDS011;6125;59.628;17.852;2022-11-21T13:17:12;6.93;;;4.10;;
12122;SDS011;6125;59.628;17.852;2022-11-21T13:19:58;5.33;;;3.70;;
12122;SDS011;6125;59.628;17.852;2022-11-21T13:25:39;6.70;;;3.97;;
12122;SDS011;6125;59.628;17.852;2022-11-21T13:28:22;5.23;;;4.00;;
12122;SDS011;6125;59.628;17.852;2022-11-21T13:31:01;5.73;;;4.00;;
12122;SDS011;6125;59.628;17.852;2022-11-21T13:33:53;5.77;;;4.10;;
12122;SDS011;6125;59.628;17.852;2022-11-21T13:36:35;6.07;;;3.83;;
12122;SDS011;6125;59.628;17.852;2022-11-21T13:42:07;6.27;;;3.77;;
12122;SDS011;6125;59.628;17.852;2022-11-21T13:44:55;6.70;;;3.60;;
12122;SDS011;6125;59.628;17.852;2022-11-21T13:47:42;10.73;;;3.83;;
12122;SDS011;6125;59.628;17.852;2022-11-21T13:50:45;4.43;;;3.40;;
12122;SDS011;6125;59.628;17.852;2022-11-21T13:53:38;7.27;;;3.67;;
12122;SDS011;6125;59.628;17.852;2022-11-21T13:56:23;5.33;;;3.40;;
12122;SDS011;6125;59.628;17.852;2022-11-21T13:59:00;3.37;;;2.33;;
12122;SDS011;6125;59.628;17.852;2022-11-21T14:01:57;6.13;;;3.20;;
12122;SDS011;6125;59.628;17.852;2022-11-21T14:04:48;6.17;;;3.57;;
12122;SDS011;6125;59.628;17.852;2022-11-21T14:07:32;5.57;;;3.17;;
12122;SDS011;6125;59.628;17.852;2022-11-21T14:10:02;4.63;;;3.37;;
12122;SDS011;6125;59.628;17.852;2022-11-21T14:12:33;6.30;;;3.23;;
12122;SDS011;6125;59.628;17.852;2022-11-21T14:17:53;5.17;;;3.50;;
12122;SDS011;6125;59.628;17.852;2022-11-21T14:20:23;4.50;;;3.17;;
12122;SDS011;6125;59.628;17.852;2022-11-21T14:22:54;4.07;;;2.77;;
12122;SDS011;6125;59.628;17.852;2022-11-21T14:25:32;7.23;;;3.70;;
12122;SDS011;6125;59.628;17.852;2022-11-21T14:28:03;6.03;;;4.00;;
12122;SDS011;6125;59.628;17.852;2022-11-21T14:30:34;5.27;;;3.70;;
12122;SDS011;6125;59.628;17.852;2022-11-21T14:33:21;5.97;;;3.57;;
12122;SDS011;6125;59.628;17.852;2022-11-21T14:35:55;5.00;;;3.30;;
12122;SDS011;6125;59.628;17.852;2022-11-21T14:38:25;5.37;;;3.63;;
12122;SDS011;6125;59.628;17.852;2022-11-21T14:46:46;5.27;;;3.47;;
12122;SDS011;6125;59.628;17.852;2022-11-21T14:49:23;7.00;;;3.20;;
12122;SDS011;6125;59.628;17.852;2022-11-21T14:54:45;3.43;;;2.80;;
12122;SDS011;6125;59.628;17.852;2022-11-21T14:57:17;4.93;;;3.10;;
12122;SDS011;6125;59.628;17.852;2022-11-21T14:59:51;6.10;;;2.73;;
12122;SDS011;6125;59.628;17.852;2022-11-21T15:02:20;5.93;;;3.30;;
12122;SDS011;6125;59.628;17.852;2022-11-21T15:04:48;4.80;;;3.00;;
12122;SDS011;6125;59.628;17.852;2022-11-21T15:07:18;4.20;;;2.83;;
12122;SDS011;6125;59.628;17.852;2022-11-21T15:09:46;5.23;;;3.10;;
12122;SDS011;6125;59.628;17.852;2022-11-21T15:12:18;3.60;;;2.67;;
12122;SDS011;6125;59.628;17.852;2022-11-21T15:14:49;4.90;;;2.87;;
12122;SDS011;6125;59.628;17.852;2022-11-21T15:17:28;4.07;;;2.73;;
12122;SDS011;6125;59.628;17.852;2022-11-21T15:20:05;5.60;;;3.07;;
12122;SDS011;6125;59.628;17.852;2022-11-21T15:22:45;4.97;;;3.00;;
12122;SDS011;6125;59.628;17.852;2022-11-21T15:25:14;4.53;;;2.97;;
12122;SDS011;6125;59.628;17.852;2022-11-21T15:27:46;7.37;;;3.07;;
12122;SDS011;6125;59.628;17.852;2022-11-21T15:30:20;3.23;;;2.40;;
12122;SDS011;6125;59.628;17.852;2022-11-21T15:35:50;3.30;;;2.47;;
12122;SDS011;6125;59.628;17.852;2022-11-21T15:38:24;4.53;;;2.77;;
12122;SDS011;6125;59.628;17.852;2022-11-21T15:40:56;3.77;;;2.60;;
12122;SDS011;6125;59.628;17.852;2022-11-21T15:43:33;3.50;;;2.73;;